Friday, January 19, 2018, 10:40 AM EST
Back to Local

KMQE, Milton Blue Hill Observ

Location: Milton, MA, United States Lat: 42.217
Local Time: 10:40 AM EST (15:40 GMT) Lon: -71.117
Time Zone: US/Eastern Elev: 629 ft

Show me the last for .
Show Coded

Time T Td Feel RH Dir Speed Gust Alt SLP Vis Weather Sky Remarks
2018-01-19 09:56 25 18 16 74 270° 9 - 29.94 30.00 0 None
2018-01-19 08:56 21 16 11 80 260° 9 - 29.94 30.00 0 None
2018-01-19 07:56 19 15 8 84 260° 9 - 29.93 29.99 0 None
2018-01-19 06:56 17 14 4 87 260° 12 - 29.92 29.98 0 6-hr Min Temp (7am): 17.1°F
6-hr Max Temp (7am): 18.0°F
2018-01-19 05:56 18 14 5 84 270° 12 - 29.91 29.97 0 None
2018-01-19 04:56 17 13 4 83 260° 13 - 29.90 29.96 0 None
2018-01-19 03:56 17 13 4 83 270° 12 - 29.89 29.95 0 None
2018-01-19 02:56 18 13 6 80 270° 10 - 29.89 29.95 0 None
2018-01-19 01:56 18 13 5 80 280° 12 - 29.90 29.96 0 None
2018-01-19 00:56 18 14 6 84 290° 10 - 29.88 29.93 0 6-hr Min Temp (1am): 18.0°F
6-hr Max Temp (1am): 23.0°F
2018-01-18 23:56 19 14 7 80 300° 10 - 29.90 29.96 0 24-hr Min Temp (12am): 15.1°F
24-hr Max Temp (12am): 28.9°F
2018-01-18 22:56 19 15 7 84 300° 12 - 29.90 29.96 0 None
2018-01-18 21:56 20 15 9 81 300° 10 - 29.89 29.96 0 None
2018-01-18 20:56 20 15 9 81 300° 10 - 29.89 29.95 0 None
2018-01-18 19:56 22 15 11 74 310° 10 - 29.88 29.94 0 None
2018-01-18 18:56 23 16 9 74 310° 12 18 29.87 29.93 0 6-hr Min Temp (7pm): 23.0°F
6-hr Max Temp (7pm): 28.0°F
2018-01-18 17:56 24 16 12 70 310° 13 - 29.85 29.91 0 None
2018-01-18 16:56 24 16 14 70 310° 10 - 29.83 29.89 0 None
2018-01-18 15:56 26 17 14 68 310° 10 16 29.81 29.87 0 None
2018-01-18 14:56 28 18 15 65 320° 12 21 29.80 29.85 0 None
2018-01-18 13:56 28 18 15 65 310° 14 20 29.80 29.86 0 None
2018-01-18 12:56 27 19 14 71 310° 14 20 29.82 29.87 0 6-hr Min Temp (1pm): 15.1°F
6-hr Max Temp (1pm): 27.0°F
2018-01-18 11:56 25 18 15 74 280° 10 - 29.87 29.92 0 None
2018-01-18 10:56 23 18 14 80 300° 8 - 29.89 29.95 0 None

Support USWX by starting your Amazon purchase here.